sensor_id;sensor_type;location;lat;lon;timestamp;P1;durP1;ratioP1;P2;durP2;ratioP2
2848;SDS011;59355;52.416;13.412;2023-07-08T00:01:15;9.33;;;8.53;;
2848;SDS011;59355;52.416;13.412;2023-07-08T00:03:42;9.17;;;8.20;;
2848;SDS011;59355;52.416;13.412;2023-07-08T00:06:10;9.63;;;8.83;;
2848;SDS011;59355;52.416;13.412;2023-07-08T00:08:38;8.80;;;7.90;;
2848;SDS011;59355;52.416;13.412;2023-07-08T00:11:08;9.63;;;8.70;;
2848;SDS011;59355;52.416;13.412;2023-07-08T00:13:38;8.40;;;7.60;;
2848;SDS011;59355;52.416;13.412;2023-07-08T00:16:03;10.03;;;9.10;;
2848;SDS011;59355;52.416;13.412;2023-07-08T00:18:29;12.37;;;8.90;;
2848;SDS011;59355;52.416;13.412;2023-07-08T00:20:54;11.33;;;9.50;;
2848;SDS011;59355;52.416;13.412;2023-07-08T00:23:19;9.53;;;8.73;;
2848;SDS011;59355;52.416;13.412;2023-07-08T00:25:46;9.07;;;7.93;;
2848;SDS011;59355;52.416;13.412;2023-07-08T00:28:13;12.43;;;9.27;;
2848;SDS011;59355;52.416;13.412;2023-07-08T00:30:40;9.90;;;9.00;;
2848;SDS011;59355;52.416;13.412;2023-07-08T00:33:06;9.90;;;8.90;;
2848;SDS011;59355;52.416;13.412;2023-07-08T00:35:33;12.33;;;11.13;;
2848;SDS011;59355;52.416;13.412;2023-07-08T00:38:23;12.40;;;10.63;;
2848;SDS011;59355;52.416;13.412;2023-07-08T00:43:39;16.57;;;10.10;;
2848;SDS011;59355;52.416;13.412;2023-07-08T00:48:43;12.80;;;10.63;;
2848;SDS011;59355;52.416;13.412;2023-07-08T00:51:10;11.57;;;9.87;;
2848;SDS011;59355;52.416;13.412;2023-07-08T00:53:36;12.60;;;11.30;;
2848;SDS011;59355;52.416;13.412;2023-07-08T00:56:18;12.30;;;9.80;;
2848;SDS011;59355;52.416;13.412;2023-07-08T00:58:59;11.10;;;9.57;;
2848;SDS011;59355;52.416;13.412;2023-07-08T01:01:27;11.00;;;9.90;;
2848;SDS011;59355;52.416;13.412;2023-07-08T01:03:58;11.93;;;10.73;;
2848;SDS011;59355;52.416;13.412;2023-07-08T01:06:28;11.07;;;9.97;;
2848;SDS011;59355;52.416;13.412;2023-07-08T01:08:58;12.23;;;10.00;;
2848;SDS011;59355;52.416;13.412;2023-07-08T01:11:30;11.80;;;9.67;;
2848;SDS011;59355;52.416;13.412;2023-07-08T01:13:56;10.37;;;9.37;;
2848;SDS011;59355;52.416;13.412;2023-07-08T01:16:23;10.47;;;9.40;;
2848;SDS011;59355;52.416;13.412;2023-07-08T01:18:49;11.10;;;9.30;;
2848;SDS011;59355;52.416;13.412;2023-07-08T01:21:37;12.70;;;11.40;;
2848;SDS011;59355;52.416;13.412;2023-07-08T01:24:04;12.10;;;10.17;;
2848;SDS011;59355;52.416;13.412;2023-07-08T01:26:31;12.23;;;10.20;;
2848;SDS011;59355;52.416;13.412;2023-07-08T01:29:03;9.80;;;9.00;;
2848;SDS011;59355;52.416;13.412;2023-07-08T01:31:28;10.00;;;9.20;;
2848;SDS011;59355;52.416;13.412;2023-07-08T01:33:54;10.00;;;9.00;;
2848;SDS011;59355;52.416;13.412;2023-07-08T01:36:19;9.83;;;8.70;;
2848;SDS011;59355;52.416;13.412;2023-07-08T01:38:45;10.80;;;9.80;;
2848;SDS011;59355;52.416;13.412;2023-07-08T01:41:11;10.33;;;9.03;;
2848;SDS011;59355;52.416;13.412;2023-07-08T01:43:37;13.00;;;9.40;;
2848;SDS011;59355;52.416;13.412;2023-07-08T01:46:03;10.90;;;9.83;;
2848;SDS011;59355;52.416;13.412;2023-07-08T01:48:31;10.13;;;9.23;;
2848;SDS011;59355;52.416;13.412;2023-07-08T01:51:01;8.53;;;7.73;;
2848;SDS011;59355;52.416;13.412;2023-07-08T01:53:35;9.27;;;7.57;;
2848;SDS011;59355;52.416;13.412;2023-07-08T01:56:01;10.03;;;9.03;;
2848;SDS011;59355;52.416;13.412;2023-07-08T01:58:27;9.77;;;8.83;;
2848;SDS011;59355;52.416;13.412;2023-07-08T02:00:53;7.97;;;7.17;;
2848;SDS011;59355;52.416;13.412;2023-07-08T02:03:19;9.20;;;8.30;;
2848;SDS011;59355;52.416;13.412;2023-07-08T02:05:44;9.00;;;7.83;;
2848;SDS011;59355;52.416;13.412;2023-07-08T02:08:09;8.87;;;8.07;;
2848;SDS011;59355;52.416;13.412;2023-07-08T02:10:36;11.57;;;8.00;;
2848;SDS011;59355;52.416;13.412;2023-07-08T02:13:02;8.30;;;7.53;;
2848;SDS011;59355;52.416;13.412;2023-07-08T02:15:28;8.90;;;8.10;;
2848;SDS011;59355;52.416;13.412;2023-07-08T02:17:53;9.53;;;8.30;;
2848;SDS011;59355;52.416;13.412;2023-07-08T02:20:19;8.17;;;7.37;;
2848;SDS011;59355;52.416;13.412;2023-07-08T02:22:44;8.47;;;7.50;;
2848;SDS011;59355;52.416;13.412;2023-07-08T02:25:09;8.00;;;7.30;;
2848;SDS011;59355;52.416;13.412;2023-07-08T02:27:35;8.80;;;8.07;;
2848;SDS011;59355;52.416;13.412;2023-07-08T02:30:01;8.40;;;7.70;;
2848;SDS011;59355;52.416;13.412;2023-07-08T02:32:26;9.03;;;8.33;;
2848;SDS011;59355;52.416;13.412;2023-07-08T02:34:51;9.33;;;7.70;;
2848;SDS011;59355;52.416;13.412;2023-07-08T02:37:17;9.47;;;8.50;;
2848;SDS011;59355;52.416;13.412;2023-07-08T02:39:43;8.40;;;7.70;;
2848;SDS011;59355;52.416;13.412;2023-07-08T02:42:08;8.93;;;8.23;;
2848;SDS011;59355;52.416;13.412;2023-07-08T02:44:33;9.43;;;8.40;;
2848;SDS011;59355;52.416;13.412;2023-07-08T02:46:59;8.33;;;7.60;;
2848;SDS011;59355;52.416;13.412;2023-07-08T02:49:25;9.20;;;8.30;;
2848;SDS011;59355;52.416;13.412;2023-07-08T02:51:50;8.87;;;8.07;;
2848;SDS011;59355;52.416;13.412;2023-07-08T02:54:15;8.50;;;7.70;;
2848;SDS011;59355;52.416;13.412;2023-07-08T02:56:41;8.57;;;7.77;;
2848;SDS011;59355;52.416;13.412;2023-07-08T02:59:06;7.83;;;7.13;;
2848;SDS011;59355;52.416;13.412;2023-07-08T03:01:31;8.90;;;7.60;;
2848;SDS011;59355;52.416;13.412;2023-07-08T03:03:59;9.70;;;8.80;;
2848;SDS011;59355;52.416;13.412;2023-07-08T03:06:24;7.83;;;7.13;;
2848;SDS011;59355;52.416;13.412;2023-07-08T03:08:50;9.63;;;8.30;;
2848;SDS011;59355;52.416;13.412;2023-07-08T03:11:15;8.37;;;7.67;;
2848;SDS011;59355;52.416;13.412;2023-07-08T03:13:41;8.60;;;7.80;;
2848;SDS011;59355;52.416;13.412;2023-07-08T03:16:06;8.43;;;7.63;;
2848;SDS011;59355;52.416;13.412;2023-07-08T03:18:37;9.70;;;8.70;;
2848;SDS011;59355;52.416;13.412;2023-07-08T03:21:10;18.03;;;9.07;;
2848;SDS011;59355;52.416;13.412;2023-07-08T03:23:37;9.63;;;8.73;;
2848;SDS011;59355;52.416;13.412;2023-07-08T03:26:02;8.83;;;8.00;;
2848;SDS011;59355;52.416;13.412;2023-07-08T03:28:27;9.03;;;8.23;;
2848;SDS011;59355;52.416;13.412;2023-07-08T03:30:53;10.07;;;8.90;;
2848;SDS011;59355;52.416;13.412;2023-07-08T03:33:18;11.50;;;8.37;;
2848;SDS011;59355;52.416;13.412;2023-07-08T03:35:44;8.40;;;7.60;;
2848;SDS011;59355;52.416;13.412;2023-07-08T03:38:10;8.73;;;7.93;;
2848;SDS011;59355;52.416;13.412;2023-07-08T03:40:35;11.50;;;8.90;;
2848;SDS011;59355;52.416;13.412;2023-07-08T03:43:00;8.93;;;7.97;;
2848;SDS011;59355;52.416;13.412;2023-07-08T03:45:26;9.27;;;8.47;;
2848;SDS011;59355;52.416;13.412;2023-07-08T03:47:51;8.53;;;7.73;;
2848;SDS011;59355;52.416;13.412;2023-07-08T03:50:18;8.50;;;7.73;;
2848;SDS011;59355;52.416;13.412;2023-07-08T03:52:45;8.97;;;8.17;;
2848;SDS011;59355;52.416;13.412;2023-07-08T03:55:11;9.23;;;8.27;;
2848;SDS011;59355;52.416;13.412;2023-07-08T03:57:36;8.77;;;8.03;;
2848;SDS011;59355;52.416;13.412;2023-07-08T04:00:02;8.60;;;7.77;;
2848;SDS011;59355;52.416;13.412;2023-07-08T04:02:27;9.50;;;8.60;;
2848;SDS011;59355;52.416;13.412;2023-07-08T04:04:53;9.00;;;8.10;;
2848;SDS011;59355;52.416;13.412;2023-07-08T04:07:18;8.50;;;7.70;;
2848;SDS011;59355;52.416;13.412;2023-07-08T04:09:43;8.77;;;8.00;;
2848;SDS011;59355;52.416;13.412;2023-07-08T04:12:14;13.00;;;8.17;;
2848;SDS011;59355;52.416;13.412;2023-07-08T04:14:40;9.90;;;8.90;;
2848;SDS011;59355;52.416;13.412;2023-07-08T04:17:07;7.37;;;6.77;;
2848;SDS011;59355;52.416;13.412;2023-07-08T04:19:33;8.80;;;8.10;;
2848;SDS011;59355;52.416;13.412;2023-07-08T04:22:00;11.00;;;7.77;;
2848;SDS011;59355;52.416;13.412;2023-07-08T04:24:25;9.07;;;8.20;;
2848;SDS011;59355;52.416;13.412;2023-07-08T04:26:51;8.87;;;7.90;;
2848;SDS011;59355;52.416;13.412;2023-07-08T04:29:18;8.63;;;7.93;;
2848;SDS011;59355;52.416;13.412;2023-07-08T04:31:44;9.47;;;8.53;;
2848;SDS011;59355;52.416;13.412;2023-07-08T04:34:10;8.53;;;7.70;;
2848;SDS011;59355;52.416;13.412;2023-07-08T04:36:36;9.03;;;8.13;;
2848;SDS011;59355;52.416;13.412;2023-07-08T04:39:05;8.20;;;7.40;;
2848;SDS011;59355;52.416;13.412;2023-07-08T04:41:31;8.17;;;7.47;;
2848;SDS011;59355;52.416;13.412;2023-07-08T04:43:57;8.80;;;8.00;;
2848;SDS011;59355;52.416;13.412;2023-07-08T04:49:18;8.07;;;7.47;;
2848;SDS011;59355;52.416;13.412;2023-07-08T04:51:43;7.47;;;6.87;;
2848;SDS011;59355;52.416;13.412;2023-07-08T04:54:08;7.73;;;7.13;;
2848;SDS011;59355;52.416;13.412;2023-07-08T04:56:38;7.27;;;6.67;;
2848;SDS011;59355;52.416;13.412;2023-07-08T04:59:06;8.47;;;7.67;;
2848;SDS011;59355;52.416;13.412;2023-07-08T05:01:32;8.07;;;7.30;;
2848;SDS011;59355;52.416;13.412;2023-07-08T05:03:58;8.00;;;7.30;;
2848;SDS011;59355;52.416;13.412;2023-07-08T05:06:24;7.43;;;6.67;;
2848;SDS011;59355;52.416;13.412;2023-07-08T05:08:49;7.60;;;6.80;;
2848;SDS011;59355;52.416;13.412;2023-07-08T05:11:15;7.83;;;7.17;;
2848;SDS011;59355;52.416;13.412;2023-07-08T05:13:40;7.03;;;6.20;;
2848;SDS011;59355;52.416;13.412;2023-07-08T05:16:05;7.43;;;6.73;;
2848;SDS011;59355;52.416;13.412;2023-07-08T05:18:31;8.67;;;7.87;;
2848;SDS011;59355;52.416;13.412;2023-07-08T05:20:56;8.20;;;7.40;;
2848;SDS011;59355;52.416;13.412;2023-07-08T05:23:21;8.13;;;7.33;;
2848;SDS011;59355;52.416;13.412;2023-07-08T05:25:47;7.20;;;6.60;;
2848;SDS011;59355;52.416;13.412;2023-07-08T05:28:12;7.43;;;6.73;;
2848;SDS011;59355;52.416;13.412;2023-07-08T05:30:39;7.40;;;6.70;;
2848;SDS011;59355;52.416;13.412;2023-07-08T05:33:05;7.60;;;6.90;;
2848;SDS011;59355;52.416;13.412;2023-07-08T05:35:31;7.40;;;6.77;;
2848;SDS011;59355;52.416;13.412;2023-07-08T05:37:56;8.17;;;7.37;;
2848;SDS011;59355;52.416;13.412;2023-07-08T05:40:21;10.53;;;7.60;;
2848;SDS011;59355;52.416;13.412;2023-07-08T05:42:46;7.77;;;6.67;;
2848;SDS011;59355;52.416;13.412;2023-07-08T05:45:12;6.63;;;6.03;;
2848;SDS011;59355;52.416;13.412;2023-07-08T05:47:37;7.20;;;6.37;;
2848;SDS011;59355;52.416;13.412;2023-07-08T05:50:03;6.97;;;6.30;;
2848;SDS011;59355;52.416;13.412;2023-07-08T05:52:28;7.80;;;7.07;;
2848;SDS011;59355;52.416;13.412;2023-07-08T05:54:53;7.30;;;6.70;;
2848;SDS011;59355;52.416;13.412;2023-07-08T05:57:20;9.53;;;6.70;;
2848;SDS011;59355;52.416;13.412;2023-07-08T05:59:45;6.73;;;6.13;;
2848;SDS011;59355;52.416;13.412;2023-07-08T06:02:11;7.00;;;6.40;;
2848;SDS011;59355;52.416;13.412;2023-07-08T06:04:37;6.77;;;6.10;;
2848;SDS011;59355;52.416;13.412;2023-07-08T06:07:02;6.47;;;5.93;;
2848;SDS011;59355;52.416;13.412;2023-07-08T06:09:28;8.10;;;6.30;;
2848;SDS011;59355;52.416;13.412;2023-07-08T06:11:53;7.60;;;5.90;;
2848;SDS011;59355;52.416;13.412;2023-07-08T06:14:18;7.27;;;6.57;;
2848;SDS011;59355;52.416;13.412;2023-07-08T06:16:44;6.80;;;6.10;;
2848;SDS011;59355;52.416;13.412;2023-07-08T06:19:09;7.33;;;6.63;;
2848;SDS011;59355;52.416;13.412;2023-07-08T06:21:34;6.80;;;6.13;;
2848;SDS011;59355;52.416;13.412;2023-07-08T06:24:00;6.50;;;5.90;;
2848;SDS011;59355;52.416;13.412;2023-07-08T06:26:25;6.53;;;5.93;;
2848;SDS011;59355;52.416;13.412;2023-07-08T06:28:51;10.00;;;7.00;;
2848;SDS011;59355;52.416;13.412;2023-07-08T06:31:16;6.50;;;5.90;;
2848;SDS011;59355;52.416;13.412;2023-07-08T06:33:41;6.20;;;5.70;;
2848;SDS011;59355;52.416;13.412;2023-07-08T06:36:07;7.23;;;6.27;;
2848;SDS011;59355;52.416;13.412;2023-07-08T06:38:32;8.40;;;5.90;;
2848;SDS011;59355;52.416;13.412;2023-07-08T06:40:58;7.43;;;6.67;;
2848;SDS011;59355;52.416;13.412;2023-07-08T06:43:23;6.70;;;6.20;;
2848;SDS011;59355;52.416;13.412;2023-07-08T06:45:48;6.10;;;5.67;;
2848;SDS011;59355;52.416;13.412;2023-07-08T06:48:14;6.10;;;5.60;;
2848;SDS011;59355;52.416;13.412;2023-07-08T06:50:41;5.93;;;5.40;;
2848;SDS011;59355;52.416;13.412;2023-07-08T06:53:08;6.50;;;5.87;;
2848;SDS011;59355;52.416;13.412;2023-07-08T06:55:33;7.60;;;5.70;;
2848;SDS011;59355;52.416;13.412;2023-07-08T06:57:58;6.40;;;5.90;;
2848;SDS011;59355;52.416;13.412;2023-07-08T07:00:24;7.03;;;6.40;;
2848;SDS011;59355;52.416;13.412;2023-07-08T07:02:49;6.90;;;6.30;;
2848;SDS011;59355;52.416;13.412;2023-07-08T07:05:14;10.10;;;5.90;;
2848;SDS011;59355;52.416;13.412;2023-07-08T07:07:40;6.00;;;5.50;;
2848;SDS011;59355;52.416;13.412;2023-07-08T07:10:05;6.57;;;5.97;;
2848;SDS011;59355;52.416;13.412;2023-07-08T07:12:32;6.67;;;5.90;;
2848;SDS011;59355;52.416;13.412;2023-07-08T07:14:58;6.07;;;5.57;;
2848;SDS011;59355;52.416;13.412;2023-07-08T07:17:23;5.70;;;5.20;;
2848;SDS011;59355;52.416;13.412;2023-07-08T07:19:50;5.73;;;5.07;;
2848;SDS011;59355;52.416;13.412;2023-07-08T07:22:15;8.57;;;6.63;;
2848;SDS011;59355;52.416;13.412;2023-07-08T07:24:41;6.47;;;5.93;;
2848;SDS011;59355;52.416;13.412;2023-07-08T07:27:07;6.10;;;5.60;;
2848;SDS011;59355;52.416;13.412;2023-07-08T07:29:40;6.43;;;5.83;;
2848;SDS011;59355;52.416;13.412;2023-07-08T07:32:07;6.43;;;5.80;;
2848;SDS011;59355;52.416;13.412;2023-07-08T07:34:32;7.60;;;4.87;;
2848;SDS011;59355;52.416;13.412;2023-07-08T07:36:58;7.73;;;5.77;;
2848;SDS011;59355;52.416;13.412;2023-07-08T07:39:23;6.10;;;5.50;;
2848;SDS011;59355;52.416;13.412;2023-07-08T07:41:48;7.77;;;5.67;;
2848;SDS011;59355;52.416;13.412;2023-07-08T07:44:14;6.07;;;5.57;;
2848;SDS011;59355;52.416;13.412;2023-07-08T07:46:39;5.93;;;5.37;;
2848;SDS011;59355;52.416;13.412;2023-07-08T07:49:04;5.87;;;5.37;;
2848;SDS011;59355;52.416;13.412;2023-07-08T07:51:29;5.50;;;4.90;;
2848;SDS011;59355;52.416;13.412;2023-07-08T07:53:55;6.60;;;5.73;;
2848;SDS011;59355;52.416;13.412;2023-07-08T07:56:20;5.70;;;4.83;;
2848;SDS011;59355;52.416;13.412;2023-07-08T07:58:45;5.50;;;5.00;;
2848;SDS011;59355;52.416;13.412;2023-07-08T08:01:11;5.60;;;5.10;;
2848;SDS011;59355;52.416;13.412;2023-07-08T08:03:38;5.70;;;5.20;;
2848;SDS011;59355;52.416;13.412;2023-07-08T08:06:03;5.47;;;4.97;;
2848;SDS011;59355;52.416;13.412;2023-07-08T08:08:28;7.53;;;6.27;;
2848;SDS011;59355;52.416;13.412;2023-07-08T08:10:54;7.47;;;5.40;;
2848;SDS011;59355;52.416;13.412;2023-07-08T08:13:19;6.47;;;5.43;;
2848;SDS011;59355;52.416;13.412;2023-07-08T08:15:44;6.50;;;5.90;;
2848;SDS011;59355;52.416;13.412;2023-07-08T08:18:10;6.57;;;5.70;;
2848;SDS011;59355;52.416;13.412;2023-07-08T08:20:35;6.20;;;5.53;;
2848;SDS011;59355;52.416;13.412;2023-07-08T08:23:00;5.73;;;5.23;;
2848;SDS011;59355;52.416;13.412;2023-07-08T08:25:26;6.00;;;5.40;;
2848;SDS011;59355;52.416;13.412;2023-07-08T08:27:51;6.27;;;5.40;;
2848;SDS011;59355;52.416;13.412;2023-07-08T08:30:17;5.83;;;5.33;;
2848;SDS011;59355;52.416;13.412;2023-07-08T08:32:42;5.83;;;5.33;;
2848;SDS011;59355;52.416;13.412;2023-07-08T08:35:08;5.37;;;4.77;;
2848;SDS011;59355;52.416;13.412;2023-07-08T08:37:33;6.00;;;5.00;;
2848;SDS011;59355;52.416;13.412;2023-07-08T08:39:58;5.97;;;5.37;;
2848;SDS011;59355;52.416;13.412;2023-07-08T08:42:40;7.17;;;5.40;;
2848;SDS011;59355;52.416;13.412;2023-07-08T08:45:07;4.77;;;4.37;;
2848;SDS011;59355;52.416;13.412;2023-07-08T08:47:37;8.13;;;4.90;;
2848;SDS011;59355;52.416;13.412;2023-07-08T08:50:09;6.20;;;4.93;;
2848;SDS011;59355;52.416;13.412;2023-07-08T08:52:37;5.40;;;4.90;;
2848;SDS011;59355;52.416;13.412;2023-07-08T08:55:11;5.43;;;4.10;;
2848;SDS011;59355;52.416;13.412;2023-07-08T08:57:40;6.20;;;5.60;;
2848;SDS011;59355;52.416;13.412;2023-07-08T09:00:10;7.30;;;4.80;;
2848;SDS011;59355;52.416;13.412;2023-07-08T09:02:53;5.37;;;4.87;;
2848;SDS011;59355;52.416;13.412;2023-07-08T09:05:25;5.07;;;4.57;;
2848;SDS011;59355;52.416;13.412;2023-07-08T09:08:04;5.30;;;4.80;;
2848;SDS011;59355;52.416;13.412;2023-07-08T09:10:44;4.80;;;4.30;;
2848;SDS011;59355;52.416;13.412;2023-07-08T09:19:17;4.50;;;4.10;;
2848;SDS011;59355;52.416;13.412;2023-07-08T09:24:31;4.77;;;4.37;;
2848;SDS011;59355;52.416;13.412;2023-07-08T09:26:59;5.20;;;4.57;;
2848;SDS011;59355;52.416;13.412;2023-07-08T09:29:26;3.87;;;3.50;;
2848;SDS011;59355;52.416;13.412;2023-07-08T09:31:51;5.63;;;4.27;;
2848;SDS011;59355;52.416;13.412;2023-07-08T09:34:23;4.20;;;3.63;;
2848;SDS011;59355;52.416;13.412;2023-07-08T09:36:49;4.03;;;3.57;;
2848;SDS011;59355;52.416;13.412;2023-07-08T09:39:17;4.37;;;3.97;;
2848;SDS011;59355;52.416;13.412;2023-07-08T09:41:47;4.27;;;3.83;;
2848;SDS011;59355;52.416;13.412;2023-07-08T09:44:15;4.43;;;4.00;;
2848;SDS011;59355;52.416;13.412;2023-07-08T09:46:42;3.70;;;3.40;;
2848;SDS011;59355;52.416;13.412;2023-07-08T09:49:09;4.33;;;3.93;;
2848;SDS011;59355;52.416;13.412;2023-07-08T09:51:40;4.57;;;4.17;;
2848;SDS011;59355;52.416;13.412;2023-07-08T09:54:05;7.23;;;3.80;;
2848;SDS011;59355;52.416;13.412;2023-07-08T09:56:32;4.37;;;3.97;;
2848;SDS011;59355;52.416;13.412;2023-07-08T09:58:57;5.30;;;3.73;;
2848;SDS011;59355;52.416;13.412;2023-07-08T10:01:23;3.80;;;3.33;;
2848;SDS011;59355;52.416;13.412;2023-07-08T10:03:50;4.23;;;3.83;;
2848;SDS011;59355;52.416;13.412;2023-07-08T10:06:24;5.70;;;4.10;;
2848;SDS011;59355;52.416;13.412;2023-07-08T10:08:51;4.40;;;4.00;;
2848;SDS011;59355;52.416;13.412;2023-07-08T10:11:25;5.93;;;4.10;;
2848;SDS011;59355;52.416;13.412;2023-07-08T10:13:53;5.90;;;4.80;;
2848;SDS011;59355;52.416;13.412;2023-07-08T10:16:25;5.23;;;3.70;;
2848;SDS011;59355;52.416;13.412;2023-07-08T10:18:52;5.80;;;4.27;;
2848;SDS011;59355;52.416;13.412;2023-07-08T10:21:23;4.33;;;3.93;;
2848;SDS011;59355;52.416;13.412;2023-07-08T10:26:40;5.20;;;4.43;;
2848;SDS011;59355;52.416;13.412;2023-07-08T10:32:05;4.43;;;3.90;;
2848;SDS011;59355;52.416;13.412;2023-07-08T10:34:46;5.30;;;4.00;;
2848;SDS011;59355;52.416;13.412;2023-07-08T10:47:54;4.43;;;4.03;;
2848;SDS011;59355;52.416;13.412;2023-07-08T10:50:48;4.13;;;3.40;;
2848;SDS011;59355;52.416;13.412;2023-07-08T10:55:54;4.70;;;4.10;;
2848;SDS011;59355;52.416;13.412;2023-07-08T10:58:42;4.30;;;3.90;;
2848;SDS011;59355;52.416;13.412;2023-07-08T11:04:17;6.13;;;5.53;;
2848;SDS011;59355;52.416;13.412;2023-07-08T11:07:03;4.77;;;4.37;;
2848;SDS011;59355;52.416;13.412;2023-07-08T11:09:37;4.53;;;4.13;;
2848;SDS011;59355;52.416;13.412;2023-07-08T11:12:11;6.97;;;4.60;;
2848;SDS011;59355;52.416;13.412;2023-07-08T11:14:46;5.83;;;3.87;;
2848;SDS011;59355;52.416;13.412;2023-07-08T11:17:16;4.20;;;3.80;;
2848;SDS011;59355;52.416;13.412;2023-07-08T11:19:48;4.87;;;4.10;;
2848;SDS011;59355;52.416;13.412;2023-07-08T11:22:18;4.70;;;4.30;;
2848;SDS011;59355;52.416;13.412;2023-07-08T11:24:48;4.80;;;4.23;;
2848;SDS011;59355;52.416;13.412;2023-07-08T11:27:20;6.20;;;4.37;;
2848;SDS011;59355;52.416;13.412;2023-07-08T11:29:53;4.40;;;3.90;;
2848;SDS011;59355;52.416;13.412;2023-07-08T11:32:20;4.93;;;4.43;;
2848;SDS011;59355;52.416;13.412;2023-07-08T11:34:47;4.70;;;4.20;;
2848;SDS011;59355;52.416;13.412;2023-07-08T11:37:14;5.03;;;4.10;;
2848;SDS011;59355;52.416;13.412;2023-07-08T11:39:44;4.13;;;3.77;;
2848;SDS011;59355;52.416;13.412;2023-07-08T11:42:16;4.27;;;3.87;;
2848;SDS011;59355;52.416;13.412;2023-07-08T11:44:47;6.90;;;4.60;;
2848;SDS011;59355;52.416;13.412;2023-07-08T11:47:37;5.60;;;5.07;;
2848;SDS011;59355;52.416;13.412;2023-07-08T11:50:13;4.47;;;4.07;;
2848;SDS011;59355;52.416;13.412;2023-07-08T11:52:39;5.47;;;4.50;;
2848;SDS011;59355;52.416;13.412;2023-07-08T11:58:22;4.80;;;4.30;;
2848;SDS011;59355;52.416;13.412;2023-07-08T12:01:03;5.53;;;4.10;;
2848;SDS011;59355;52.416;13.412;2023-07-08T12:08:52;4.40;;;4.00;;
2848;SDS011;59355;52.416;13.412;2023-07-08T12:11:40;4.77;;;4.37;;
2848;SDS011;59355;52.416;13.412;2023-07-08T12:14:08;11.83;;;4.70;;
2848;SDS011;59355;52.416;13.412;2023-07-08T12:16:33;4.33;;;3.93;;
2848;SDS011;59355;52.416;13.412;2023-07-08T12:18:59;7.30;;;4.90;;
2848;SDS011;59355;52.416;13.412;2023-07-08T12:21:25;4.90;;;4.50;;
2848;SDS011;59355;52.416;13.412;2023-07-08T12:23:52;4.93;;;4.53;;
2848;SDS011;59355;52.416;13.412;2023-07-08T12:26:17;6.80;;;4.57;;
2848;SDS011;59355;52.416;13.412;2023-07-08T12:28:43;5.17;;;4.20;;
2848;SDS011;59355;52.416;13.412;2023-07-08T12:31:13;5.60;;;4.33;;
2848;SDS011;59355;52.416;13.412;2023-07-08T12:33:41;7.43;;;4.97;;
2848;SDS011;59355;52.416;13.412;2023-07-08T12:36:09;6.40;;;4.50;;
2848;SDS011;59355;52.416;13.412;2023-07-08T12:38:37;4.80;;;4.40;;
2848;SDS011;59355;52.416;13.412;2023-07-08T12:41:17;5.10;;;4.60;;
2848;SDS011;59355;52.416;13.412;2023-07-08T12:43:45;5.20;;;4.67;;
2848;SDS011;59355;52.416;13.412;2023-07-08T12:46:10;8.30;;;7.50;;
2848;SDS011;59355;52.416;13.412;2023-07-08T12:48:37;5.03;;;4.53;;
2848;SDS011;59355;52.416;13.412;2023-07-08T12:51:03;4.90;;;4.50;;
2848;SDS011;59355;52.416;13.412;2023-07-08T12:53:29;4.07;;;3.77;;
2848;SDS011;59355;52.416;13.412;2023-07-08T12:55:54;6.63;;;5.00;;
2848;SDS011;59355;52.416;13.412;2023-07-08T12:58:25;7.50;;;4.60;;
2848;SDS011;59355;52.416;13.412;2023-07-08T13:00:53;4.50;;;4.10;;
2848;SDS011;59355;52.416;13.412;2023-07-08T13:03:19;4.40;;;4.00;;
2848;SDS011;59355;52.416;13.412;2023-07-08T13:05:48;5.27;;;4.20;;
2848;SDS011;59355;52.416;13.412;2023-07-08T13:08:15;4.50;;;4.10;;
2848;SDS011;59355;52.416;13.412;2023-07-08T13:10:45;5.40;;;4.90;;
2848;SDS011;59355;52.416;13.412;2023-07-08T13:13:17;5.30;;;4.80;;
2848;SDS011;59355;52.416;13.412;2023-07-08T13:15:46;4.80;;;4.40;;
2848;SDS011;59355;52.416;13.412;2023-07-08T13:18:13;4.73;;;4.17;;
2848;SDS011;59355;52.416;13.412;2023-07-08T13:20:40;4.00;;;3.63;;
2848;SDS011;59355;52.416;13.412;2023-07-08T13:23:07;7.43;;;4.40;;
2848;SDS011;59355;52.416;13.412;2023-07-08T13:25:32;4.73;;;4.23;;
2848;SDS011;59355;52.416;13.412;2023-07-08T13:28:00;4.90;;;4.40;;
2848;SDS011;59355;52.416;13.412;2023-07-08T13:30:28;5.40;;;4.57;;
2848;SDS011;59355;52.416;13.412;2023-07-08T13:32:55;5.13;;;4.63;;
2848;SDS011;59355;52.416;13.412;2023-07-08T13:35:26;5.73;;;4.13;;
2848;SDS011;59355;52.416;13.412;2023-07-08T13:37:54;5.07;;;4.43;;
2848;SDS011;59355;52.416;13.412;2023-07-08T13:40:20;5.07;;;3.97;;
2848;SDS011;59355;52.416;13.412;2023-07-08T13:42:49;6.73;;;4.17;;
2848;SDS011;59355;52.416;13.412;2023-07-08T13:45:21;5.67;;;4.90;;
2848;SDS011;59355;52.416;13.412;2023-07-08T13:50:45;4.70;;;4.03;;
2848;SDS011;59355;52.416;13.412;2023-07-08T13:53:15;5.70;;;4.90;;
2848;SDS011;59355;52.416;13.412;2023-07-08T13:55:41;5.77;;;4.27;;
2848;SDS011;59355;52.416;13.412;2023-07-08T13:58:07;4.60;;;4.20;;
2848;SDS011;59355;52.416;13.412;2023-07-08T14:00:40;4.43;;;4.03;;
2848;SDS011;59355;52.416;13.412;2023-07-08T14:03:08;5.30;;;4.80;;
2848;SDS011;59355;52.416;13.412;2023-07-08T14:05:36;4.80;;;4.30;;
2848;SDS011;59355;52.416;13.412;2023-07-08T14:08:04;4.53;;;4.13;;
2848;SDS011;59355;52.416;13.412;2023-07-08T14:10:34;4.90;;;4.50;;
2848;SDS011;59355;52.416;13.412;2023-07-08T14:13:00;4.73;;;3.90;;
2848;SDS011;59355;52.416;13.412;2023-07-08T14:15:25;4.80;;;4.37;;
2848;SDS011;59355;52.416;13.412;2023-07-08T14:17:50;5.10;;;4.60;;
2848;SDS011;59355;52.416;13.412;2023-07-08T14:20:16;6.60;;;5.00;;
2848;SDS011;59355;52.416;13.412;2023-07-08T14:22:43;5.47;;;4.97;;
2848;SDS011;59355;52.416;13.412;2023-07-08T14:25:09;4.53;;;4.13;;
2848;SDS011;59355;52.416;13.412;2023-07-08T14:27:35;5.33;;;4.83;;
2848;SDS011;59355;52.416;13.412;2023-07-08T14:30:00;4.93;;;4.43;;
2848;SDS011;59355;52.416;13.412;2023-07-08T14:32:29;4.87;;;4.47;;
2848;SDS011;59355;52.416;13.412;2023-07-08T14:34:56;5.57;;;5.10;;
2848;SDS011;59355;52.416;13.412;2023-07-08T14:37:24;5.67;;;5.17;;
2848;SDS011;59355;52.416;13.412;2023-07-08T14:39:50;4.50;;;4.10;;
2848;SDS011;59355;52.416;13.412;2023-07-08T14:42:16;5.30;;;4.70;;
2848;SDS011;59355;52.416;13.412;2023-07-08T14:44:43;4.80;;;4.40;;
2848;SDS011;59355;52.416;13.412;2023-07-08T14:47:10;6.23;;;5.63;;
2848;SDS011;59355;52.416;13.412;2023-07-08T14:49:37;5.30;;;4.80;;
2848;SDS011;59355;52.416;13.412;2023-07-08T14:52:03;5.87;;;4.60;;
2848;SDS011;59355;52.416;13.412;2023-07-08T14:54:28;4.20;;;3.80;;
2848;SDS011;59355;52.416;13.412;2023-07-08T14:56:54;5.00;;;4.50;;
2848;SDS011;59355;52.416;13.412;2023-07-08T14:59:22;5.73;;;4.83;;
2848;SDS011;59355;52.416;13.412;2023-07-08T15:01:48;5.47;;;4.97;;
2848;SDS011;59355;52.416;13.412;2023-07-08T15:04:15;4.87;;;4.47;;
2848;SDS011;59355;52.416;13.412;2023-07-08T15:06:41;4.30;;;3.90;;
2848;SDS011;59355;52.416;13.412;2023-07-08T15:09:07;5.53;;;4.63;;
2848;SDS011;59355;52.416;13.412;2023-07-08T15:11:33;4.73;;;4.23;;
2848;SDS011;59355;52.416;13.412;2023-07-08T15:13:59;6.40;;;4.73;;
2848;SDS011;59355;52.416;13.412;2023-07-08T15:16:26;5.00;;;4.57;;
2848;SDS011;59355;52.416;13.412;2023-07-08T15:18:51;13.00;;;4.73;;
2848;SDS011;59355;52.416;13.412;2023-07-08T15:21:16;4.73;;;3.60;;
2848;SDS011;59355;52.416;13.412;2023-07-08T15:23:42;5.43;;;4.80;;
2848;SDS011;59355;52.416;13.412;2023-07-08T15:26:09;5.23;;;4.73;;
2848;SDS011;59355;52.416;13.412;2023-07-08T15:28:40;4.57;;;4.17;;
2848;SDS011;59355;52.416;13.412;2023-07-08T15:31:12;6.57;;;4.20;;
2848;SDS011;59355;52.416;13.412;2023-07-08T15:33:37;5.10;;;4.50;;
2848;SDS011;59355;52.416;13.412;2023-07-08T15:36:02;5.80;;;4.50;;
2848;SDS011;59355;52.416;13.412;2023-07-08T15:38:28;5.40;;;4.90;;